createdAt,value
2022-09-29T00:01:04.737Z,2.75
2022-09-29T00:03:31.544Z,4.25
2022-09-29T00:05:58.456Z,3.42
2022-09-29T00:08:27.551Z,2.97
2022-09-29T00:10:54.543Z,3.22
2022-09-29T00:13:21.877Z,2.92
2022-09-29T00:16:02.273Z,3.25
2022-09-29T00:18:30.483Z,3.97
2022-09-29T00:21:23.851Z,2.67
2022-09-29T00:23:50.958Z,4.00
2022-09-29T00:26:23.415Z,3.25
2022-09-29T00:28:58.586Z,3.85
2022-09-29T00:31:27.518Z,2.47
2022-09-29T00:33:54.261Z,3.00
2022-09-29T00:36:22.250Z,4.00
2022-09-29T00:38:50.694Z,4.03
2022-09-29T00:41:19.899Z,4.13
2022-09-29T00:43:51.357Z,2.70
2022-09-29T00:46:40.861Z,3.80
2022-09-29T00:49:33.025Z,5.07
2022-09-29T00:52:02.713Z,3.30
2022-09-29T00:54:33.834Z,3.30
2022-09-29T00:57:02.398Z,4.43
2022-09-29T00:59:38.372Z,4.10
2022-09-29T01:02:06.251Z,4.40
2022-09-29T01:04:33.023Z,4.05
2022-09-29T01:06:59.762Z,3.60
2022-09-29T01:09:33.104Z,4.50
2022-09-29T01:12:00.303Z,4.10
2022-09-29T01:14:28.702Z,3.47
2022-09-29T01:16:55.425Z,4.53
2022-09-29T01:19:51.418Z,3.40
2022-09-29T01:22:36.434Z,3.78
2022-09-29T01:25:35.379Z,3.67
2022-09-29T01:28:07.953Z,3.45
2022-09-29T01:31:00.024Z,4.00
2022-09-29T01:33:43.715Z,3.95
2022-09-29T01:36:53.787Z,3.75
2022-09-29T01:39:43.955Z,3.20
2022-09-29T01:42:16.477Z,3.50
2022-09-29T01:44:44.832Z,3.95
2022-09-29T01:47:15.170Z,3.22
2022-09-29T01:49:45.647Z,3.88
2022-09-29T01:52:18.577Z,3.67
2022-09-29T01:55:17.458Z,4.45
2022-09-29T01:57:50.973Z,4.20
2022-09-29T02:00:19.421Z,3.95
2022-09-29T02:02:57.235Z,3.92
2022-09-29T02:06:00.252Z,3.80
2022-09-29T02:08:32.774Z,3.78
2022-09-29T02:11:07.252Z,3.53
2022-09-29T02:14:02.379Z,3.03
2022-09-29T02:16:31.721Z,4.63
2022-09-29T02:19:03.035Z,2.95
2022-09-29T02:21:29.797Z,3.90
2022-09-29T02:23:56.857Z,4.90
2022-09-29T02:26:24.773Z,4.07
2022-09-29T02:28:52.423Z,3.35
2022-09-29T02:31:19.400Z,3.70
2022-09-29T02:33:46.082Z,2.65
2022-09-29T02:36:13.202Z,3.25
2022-09-29T02:39:02.136Z,3.70
2022-09-29T02:41:40.979Z,4.30
2022-09-29T02:44:35.538Z,3.35
2022-09-29T02:47:30.025Z,4.75
2022-09-29T02:50:24.847Z,3.30
2022-09-29T02:53:12.738Z,3.83
2022-09-29T02:56:25.226Z,3.30
2022-09-29T02:59:04.020Z,2.33
2022-09-29T03:01:32.748Z,3.83
2022-09-29T03:04:04.241Z,3.67
2022-09-29T03:06:31.712Z,2.97
2022-09-29T03:08:58.454Z,4.57
2022-09-29T03:11:25.196Z,3.40
2022-09-29T03:13:51.911Z,3.38
2022-09-29T03:16:18.672Z,3.08
2022-09-29T03:18:45.418Z,3.97
2022-09-29T03:21:12.221Z,2.83
2022-09-29T03:23:39.754Z,3.78
2022-09-29T03:26:06.560Z,3.25
2022-09-29T03:28:33.282Z,3.92
2022-09-29T03:31:10.094Z,4.10
2022-09-29T03:33:38.644Z,3.40
2022-09-29T03:36:07.006Z,3.22
2022-09-29T03:38:33.834Z,2.67
2022-09-29T03:41:00.921Z,4.15
2022-09-29T03:43:27.948Z,3.53
2022-09-29T03:45:55.703Z,2.97
2022-09-29T03:48:24.842Z,3.55
2022-09-29T03:50:53.871Z,2.63
2022-09-29T03:53:20.671Z,2.90
2022-09-29T03:55:48.851Z,3.72
2022-09-29T03:58:16.106Z,3.25
2022-09-29T04:00:43.320Z,2.47
2022-09-29T04:03:10.198Z,3.30
2022-09-29T04:05:39.672Z,2.85
2022-09-29T04:08:06.771Z,3.28
2022-09-29T04:10:37.135Z,3.55
2022-09-29T04:13:04.552Z,3.42
2022-09-29T04:15:31.620Z,3.50
2022-09-29T04:17:58.558Z,3.83
2022-09-29T04:20:25.485Z,3.88
2022-09-29T04:22:52.290Z,4.40
2022-09-29T04:25:19.298Z,5.13
2022-09-29T04:27:46.107Z,4.15
2022-09-29T04:30:12.948Z,4.00
2022-09-29T04:32:39.692Z,5.07
2022-09-29T04:35:06.779Z,4.07
2022-09-29T04:37:33.635Z,3.90
2022-09-29T04:40:00.606Z,4.38
2022-09-29T04:42:27.360Z,3.45
2022-09-29T04:44:54.109Z,4.30
2022-09-29T04:47:21.065Z,5.90
2022-09-29T04:49:47.903Z,4.07
2022-09-29T04:52:14.897Z,5.78
2022-09-29T04:54:41.614Z,4.38
2022-09-29T04:57:09.933Z,3.97
2022-09-29T04:59:36.606Z,3.70
2022-09-29T05:02:03.480Z,4.47
2022-09-29T05:04:30.213Z,5.65
2022-09-29T05:06:57.009Z,4.75
2022-09-29T05:09:24.946Z,5.28
2022-09-29T05:11:52.252Z,4.20
2022-09-29T05:14:18.974Z,4.10
2022-09-29T05:16:45.856Z,3.80
2022-09-29T05:19:12.831Z,4.07
2022-09-29T05:21:39.591Z,6.03
2022-09-29T05:24:06.459Z,4.32
2022-09-29T05:26:33.226Z,3.40
2022-09-29T05:28:59.946Z,5.90
2022-09-29T05:31:26.856Z,5.22
2022-09-29T05:33:56.097Z,4.80
2022-09-29T05:36:23.473Z,3.92
2022-09-29T05:41:55.441Z,4.05
2022-09-29T05:44:24.390Z,5.13
2022-09-29T05:46:51.139Z,3.63
2022-09-29T05:49:19.434Z,5.35
2022-09-29T05:51:46.196Z,3.60
2022-09-29T05:54:12.937Z,6.57
2022-09-29T05:56:44.399Z,4.00
2022-09-29T05:59:12.279Z,4.43
2022-09-29T06:01:39.316Z,3.22
2022-09-29T06:04:06.150Z,4.30
2022-09-29T06:06:32.954Z,5.03
2022-09-29T06:09:00.530Z,5.10
2022-09-29T06:11:28.715Z,4.10
2022-09-29T06:13:56.020Z,5.68
2022-09-29T06:16:26.007Z,6.78
2022-09-29T06:18:53.097Z,4.82
2022-09-29T06:21:23.921Z,4.68
2022-09-29T06:23:51.823Z,3.83
2022-09-29T06:26:23.700Z,4.90
2022-09-29T06:28:52.252Z,3.72
2022-09-29T06:31:21.519Z,4.30
2022-09-29T06:33:48.319Z,4.50
2022-09-29T06:36:57.059Z,3.85
2022-09-29T06:39:23.975Z,5.45
2022-09-29T06:41:55.143Z,4.50
2022-09-29T06:44:30.038Z,4.45
2022-09-29T06:46:57.644Z,4.40
2022-09-29T06:49:24.372Z,4.95
2022-09-29T06:51:51.697Z,3.20
2022-09-29T06:54:21.337Z,4.40
2022-09-29T06:56:52.078Z,3.38
2022-09-29T06:59:18.935Z,4.10
2022-09-29T07:01:49.767Z,5.57
2022-09-29T07:04:17.284Z,3.95
2022-09-29T07:06:45.755Z,2.85
2022-09-29T07:09:18.395Z,3.60
2022-09-29T07:11:47.757Z,3.63
2022-09-29T07:14:18.252Z,3.65
2022-09-29T07:16:48.486Z,4.05
2022-09-29T07:19:16.821Z,3.35
2022-09-29T07:21:44.406Z,4.32
2022-09-29T07:24:11.356Z,3.45
2022-09-29T07:26:38.131Z,3.10
2022-09-29T07:29:05.264Z,3.15
2022-09-29T07:31:44.244Z,4.75
2022-09-29T07:34:14.519Z,3.83
2022-09-29T07:36:41.208Z,3.72
2022-09-29T07:39:08.028Z,3.55
2022-09-29T07:41:34.810Z,4.30
2022-09-29T07:44:01.801Z,4.40
2022-09-29T07:46:28.589Z,4.00
2022-09-29T07:48:55.618Z,4.05
2022-09-29T07:51:22.357Z,3.42
2022-09-29T07:53:49.309Z,3.58
2022-09-29T07:56:18.910Z,2.75
2022-09-29T07:58:46.830Z,3.78
2022-09-29T08:01:16.016Z,3.22
2022-09-29T08:03:46.631Z,2.85
2022-09-29T08:06:13.605Z,3.72
2022-09-29T08:08:42.448Z,3.38
2022-09-29T08:11:25.152Z,3.42
2022-09-29T08:13:54.886Z,4.25
2022-09-29T08:16:21.907Z,2.92
2022-09-29T08:18:48.751Z,3.10
2022-09-29T08:21:15.829Z,3.47
2022-09-29T08:23:43.850Z,3.60
2022-09-29T08:26:14.185Z,2.88
2022-09-29T08:28:42.134Z,4.00
2022-09-29T08:31:22.706Z,2.92
2022-09-29T08:33:50.510Z,2.90
2022-09-29T08:36:21.080Z,3.35
2022-09-29T08:38:51.072Z,2.50
2022-09-29T08:41:41.080Z,2.42
2022-09-29T08:44:39.345Z,3.60
2022-09-29T08:47:42.606Z,3.17
2022-09-29T08:50:35.265Z,3.42
2022-09-29T08:53:11.522Z,2.85
2022-09-29T08:56:06.285Z,2.33
2022-09-29T08:58:34.070Z,3.83
2022-09-29T09:01:28.310Z,3.08
2022-09-29T09:04:26.265Z,2.22
2022-09-29T09:07:16.211Z,2.55
2022-09-29T09:10:02.222Z,2.25
2022-09-29T09:12:35.905Z,2.90
2022-09-29T09:15:40.968Z,2.30
2022-09-29T09:18:35.682Z,3.15
2022-09-29T09:21:10.830Z,2.30
2022-09-29T09:23:49.790Z,2.25
2022-09-29T09:26:16.653Z,2.38
2022-09-29T09:28:48.487Z,2.53
2022-09-29T09:31:24.060Z,2.40
2022-09-29T09:34:03.631Z,2.53
2022-09-29T09:37:08.719Z,2.70
2022-09-29T09:39:40.271Z,2.38
2022-09-29T09:42:14.934Z,1.85
2022-09-29T09:45:26.628Z,2.08
2022-09-29T09:47:59.851Z,2.35
2022-09-29T09:50:26.880Z,2.53
2022-09-29T09:52:56.535Z,2.20
2022-09-29T09:55:25.949Z,2.00
2022-09-29T09:57:58.476Z,2.60
2022-09-29T10:00:29.102Z,1.63
2022-09-29T10:02:57.472Z,2.00
2022-09-29T10:05:45.415Z,2.63
2022-09-29T10:08:39.505Z,1.95
2022-09-29T10:11:16.662Z,2.25
2022-09-29T10:13:43.709Z,2.25
2022-09-29T10:16:17.757Z,2.72
2022-09-29T10:18:48.606Z,1.90
2022-09-29T10:21:23.458Z,2.10
2022-09-29T10:23:57.631Z,2.47
2022-09-29T10:26:29.123Z,2.63
2022-09-29T10:28:59.308Z,2.53
2022-09-29T10:31:30.414Z,4.07
2022-09-29T10:34:03.841Z,2.75
2022-09-29T10:36:49.268Z,1.85
2022-09-29T10:39:38.869Z,3.08
2022-09-29T10:42:27.315Z,2.95
2022-09-29T10:45:14.035Z,5.18
2022-09-29T10:47:42.909Z,3.00
2022-09-29T10:50:21.206Z,3.38
2022-09-29T10:52:52.404Z,2.15
2022-09-29T10:55:24.925Z,2.35
2022-09-29T10:57:53.127Z,2.00
2022-09-29T11:00:26.260Z,2.13
2022-09-29T11:02:54.324Z,2.75
2022-09-29T11:05:25.815Z,2.30
2022-09-29T11:07:53.089Z,1.85
2022-09-29T11:10:47.717Z,2.58
2022-09-29T11:13:20.498Z,2.53
2022-09-29T11:15:47.353Z,2.28
2022-09-29T11:18:23.429Z,2.90
2022-09-29T11:20:57.576Z,2.75
2022-09-29T11:23:31.182Z,2.78
2022-09-29T11:26:10.444Z,2.40
2022-09-29T11:29:06.293Z,2.60
2022-09-29T11:31:43.862Z,1.80
2022-09-29T11:34:37.639Z,1.73
2022-09-29T11:37:19.441Z,2.97
2022-09-29T11:39:59.302Z,2.22
2022-09-29T11:42:29.076Z,2.05
2022-09-29T11:44:55.951Z,2.00
2022-09-29T11:47:49.776Z,1.95
2022-09-29T11:50:31.867Z,1.80
2022-09-29T11:53:20.528Z,2.47
2022-09-29T11:55:57.060Z,2.30
2022-09-29T11:58:36.166Z,2.35
2022-09-29T12:01:30.991Z,2.05
2022-09-29T12:04:33.271Z,2.35
2022-09-29T12:07:13.569Z,1.98
2022-09-29T12:10:10.159Z,2.95
2022-09-29T12:12:42.726Z,2.80
2022-09-29T12:15:21.573Z,1.95
2022-09-29T12:17:56.072Z,1.80
2022-09-29T12:20:34.338Z,3.03
2022-09-29T12:23:05.817Z,2.60
2022-09-29T12:25:35.300Z,2.70
2022-09-29T12:28:06.347Z,2.70
2022-09-29T12:30:48.007Z,2.25
2022-09-29T12:33:17.830Z,1.90
2022-09-29T12:36:37.568Z,2.95
2022-09-29T12:39:28.246Z,2.20
2022-09-29T12:42:24.314Z,2.25
2022-09-29T12:44:55.629Z,2.50
2022-09-29T12:47:44.135Z,2.25
2022-09-29T12:50:16.902Z,2.55
2022-09-29T12:52:57.502Z,1.88
2022-09-29T12:55:38.908Z,2.00
2022-09-29T12:58:11.139Z,2.20
2022-09-29T13:00:39.832Z,1.90
2022-09-29T13:03:12.469Z,2.35
2022-09-29T13:06:22.867Z,1.92
2022-09-29T13:09:11.439Z,1.90
2022-09-29T13:12:00.202Z,2.22
2022-09-29T13:14:45.245Z,2.38
2022-09-29T13:17:45.803Z,2.05
2022-09-29T13:20:36.654Z,2.08
2022-09-29T13:23:21.874Z,2.47
2022-09-29T13:25:54.732Z,2.03
2022-09-29T13:28:24.793Z,2.10
2022-09-29T13:30:53.132Z,2.10
2022-09-29T13:33:26.086Z,2.03
2022-09-29T13:35:53.509Z,1.80
2022-09-29T13:38:23.135Z,2.25
2022-09-29T13:41:10.095Z,1.98
2022-09-29T13:43:58.497Z,2.13
2022-09-29T13:46:28.371Z,2.00
2022-09-29T13:49:12.314Z,1.93
2022-09-29T13:52:03.911Z,1.92
2022-09-29T13:54:31.528Z,2.28
2022-09-29T13:56:58.185Z,2.20
2022-09-29T13:59:25.998Z,2.00
2022-09-29T14:01:53.427Z,2.00
2022-09-29T14:04:51.047Z,2.20
2022-09-29T14:07:37.792Z,2.00
2022-09-29T14:10:25.563Z,1.98
2022-09-29T14:13:01.258Z,1.85
2022-09-29T14:15:29.230Z,2.25
2022-09-29T14:17:59.060Z,2.60
2022-09-29T14:20:30.499Z,1.90
2022-09-29T14:23:08.191Z,1.60
2022-09-29T14:25:41.063Z,2.50
2022-09-29T14:28:18.541Z,1.98
2022-09-29T14:30:53.173Z,2.17
2022-09-29T14:33:21.876Z,2.28
2022-09-29T14:35:54.640Z,2.53
2022-09-29T14:38:25.927Z,2.80
2022-09-29T14:40:56.013Z,2.70
2022-09-29T14:43:46.245Z,3.28
2022-09-29T14:46:39.234Z,3.00
2022-09-29T14:50:02.506Z,3.00
2022-09-29T14:52:41.228Z,2.67
2022-09-29T14:55:11.166Z,3.08
2022-09-29T14:57:40.914Z,2.90
2022-09-29T15:00:21.213Z,2.53
2022-09-29T15:02:59.615Z,2.53
2022-09-29T15:05:34.109Z,2.97
2022-09-29T15:08:03.648Z,2.30
2022-09-29T15:10:32.499Z,2.05
2022-09-29T15:13:31.808Z,2.42
2022-09-29T15:16:11.976Z,1.92
2022-09-29T15:18:53.861Z,3.00
2022-09-29T15:21:42.839Z,2.58
2022-09-29T15:24:14.531Z,2.28
2022-09-29T15:26:41.787Z,2.40
2022-09-29T15:29:11.618Z,2.35
2022-09-29T15:31:39.396Z,2.53
2022-09-29T15:34:13.432Z,2.85
2022-09-29T15:36:40.443Z,2.30
2022-09-29T15:39:33.190Z,2.47
2022-09-29T15:42:11.644Z,2.33
2022-09-29T15:44:38.393Z,2.60
2022-09-29T15:47:05.089Z,2.35
2022-09-29T15:49:31.844Z,2.08
2022-09-29T15:52:00.878Z,2.20
2022-09-29T15:54:38.673Z,2.28
2022-09-29T15:57:24.507Z,2.20
2022-09-29T15:59:54.192Z,2.70
2022-09-29T16:02:30.359Z,2.30
2022-09-29T16:05:09.898Z,3.03
2022-09-29T16:07:38.656Z,2.40
2022-09-29T16:10:17.506Z,2.28
2022-09-29T16:12:55.055Z,2.83
2022-09-29T16:15:27.536Z,2.90
2022-09-29T16:17:54.462Z,3.00
2022-09-29T16:20:27.443Z,2.60
2022-09-29T16:22:55.825Z,3.22
2022-09-29T16:25:28.888Z,2.63
2022-09-29T16:28:00.324Z,3.17
2022-09-29T16:30:32.937Z,3.78
2022-09-29T16:33:22.224Z,3.00
2022-09-29T16:35:54.800Z,2.92
2022-09-29T16:38:34.382Z,2.70
2022-09-29T16:41:28.004Z,2.97
2022-09-29T16:44:13.166Z,2.50
2022-09-29T16:46:49.130Z,2.33
2022-09-29T16:49:36.328Z,2.25
2022-09-29T16:52:11.501Z,3.20
2022-09-29T16:54:47.528Z,3.28
2022-09-29T16:57:25.311Z,3.35
2022-09-29T16:59:55.566Z,3.10
2022-09-29T17:02:23.461Z,2.20
2022-09-29T17:04:51.720Z,2.83
2022-09-29T17:07:20.649Z,2.08
2022-09-29T17:09:53.436Z,3.00
2022-09-29T17:12:20.375Z,2.72
2022-09-29T17:14:47.841Z,3.05
2022-09-29T17:17:18.385Z,3.97
2022-09-29T17:19:45.223Z,2.78
2022-09-29T17:22:30.553Z,3.08
2022-09-29T17:24:58.430Z,2.65
2022-09-29T17:27:44.944Z,3.65
2022-09-29T17:30:22.702Z,3.78
2022-09-29T17:32:50.996Z,3.30
2022-09-29T17:35:19.811Z,3.85
2022-09-29T17:37:48.277Z,3.42
2022-09-29T17:40:31.589Z,4.20
2022-09-29T17:43:01.832Z,3.85
2022-09-29T17:45:30.085Z,4.60
2022-09-29T17:47:56.925Z,5.68
2022-09-29T17:50:26.943Z,3.72
2022-09-29T17:52:54.400Z,4.47
2022-09-29T17:55:23.418Z,4.18
2022-09-29T17:57:52.260Z,4.38
2022-09-29T18:00:24.877Z,4.15
2022-09-29T18:02:57.009Z,4.97
2022-09-29T18:05:25.126Z,5.22
2022-09-29T18:07:53.385Z,5.07
2022-09-29T18:10:49.401Z,4.85
2022-09-29T18:13:16.784Z,4.40
2022-09-29T18:15:47.138Z,4.65
2022-09-29T18:18:15.890Z,5.82
2022-09-29T18:20:46.293Z,4.88
2022-09-29T18:23:15.495Z,5.22
2022-09-29T18:25:47.335Z,4.32
2022-09-29T18:28:16.080Z,4.53
2022-09-29T18:30:49.105Z,4.18
2022-09-29T18:33:18.238Z,6.63
2022-09-29T18:35:51.072Z,5.55
2022-09-29T18:38:18.056Z,6.40
2022-09-29T18:40:47.065Z,6.55
2022-09-29T18:43:14.266Z,4.95
2022-09-29T18:45:43.896Z,5.18
2022-09-29T18:48:12.887Z,4.75
2022-09-29T18:50:44.991Z,4.72
2022-09-29T18:53:13.537Z,5.82
2022-09-29T18:55:43.672Z,5.45
2022-09-29T18:58:14.327Z,5.77
2022-09-29T19:00:46.743Z,5.63
2022-09-29T19:03:13.528Z,4.85
2022-09-29T19:05:43.293Z,4.97
2022-09-29T19:08:12.848Z,4.90
2022-09-29T19:10:41.438Z,4.28
2022-09-29T19:13:13.730Z,4.55
2022-09-29T19:15:41.003Z,5.90
2022-09-29T19:18:08.433Z,5.50
2022-09-29T19:20:35.628Z,5.32
2022-09-29T19:23:03.013Z,5.38
2022-09-29T19:25:35.746Z,6.95
2022-09-29T19:28:05.576Z,6.57
2022-09-29T19:30:41.938Z,6.85
2022-09-29T19:33:11.840Z,5.38
2022-09-29T19:35:38.612Z,5.28
2022-09-29T19:38:05.385Z,6.35
2022-09-29T19:40:37.697Z,6.22
2022-09-29T19:43:05.784Z,5.85
2022-09-29T19:45:39.710Z,4.82
2022-09-29T19:48:14.869Z,6.45
2022-09-29T19:51:00.555Z,5.60
2022-09-29T19:53:27.585Z,6.30
2022-09-29T19:55:54.525Z,8.07
2022-09-29T19:58:21.887Z,5.60
2022-09-29T20:00:48.650Z,5.78
2022-09-29T20:03:15.724Z,7.15
2022-09-29T20:05:42.647Z,6.22
2022-09-29T20:08:09.511Z,6.20
2022-09-29T20:10:36.447Z,6.68
2022-09-29T20:13:03.479Z,6.20
2022-09-29T20:15:30.453Z,6.07
2022-09-29T20:17:57.461Z,6.18
2022-09-29T20:20:24.301Z,5.47
2022-09-29T20:22:51.760Z,8.77
2022-09-29T20:25:18.883Z,7.07
2022-09-29T20:27:45.947Z,6.22
2022-09-29T20:30:12.740Z,6.35
2022-09-29T20:32:39.571Z,6.32
2022-09-29T20:35:06.424Z,7.63
2022-09-29T20:37:33.305Z,6.45
2022-09-29T20:40:00.483Z,7.18
2022-09-29T20:42:27.314Z,5.63
2022-09-29T20:44:56.050Z,5.13
2022-09-29T20:47:26.003Z,6.85
2022-09-29T20:49:55.076Z,6.15
2022-09-29T20:52:23.433Z,5.75
2022-09-29T20:54:50.662Z,7.72
2022-09-29T20:57:17.650Z,6.05
2022-09-29T20:59:44.410Z,7.50
2022-09-29T21:02:13.279Z,6.15
2022-09-29T21:04:42.430Z,5.15
2022-09-29T21:07:29.409Z,6.57
2022-09-29T21:09:56.441Z,9.02
2022-09-29T21:12:23.218Z,8.35
2022-09-29T21:14:50.024Z,7.30
2022-09-29T21:17:16.924Z,7.22
2022-09-29T21:19:43.822Z,6.57
2022-09-29T21:22:10.769Z,7.25
2022-09-29T21:24:39.184Z,7.88
2022-09-29T21:27:06.637Z,7.22
2022-09-29T21:29:33.863Z,8.07
2022-09-29T21:32:00.945Z,6.15
2022-09-29T21:34:28.098Z,7.00
2022-09-29T21:36:54.833Z,8.48
2022-09-29T21:39:21.940Z,5.88
2022-09-29T21:41:49.002Z,6.18
2022-09-29T21:44:19.242Z,6.18
2022-09-29T21:46:46.526Z,5.80
2022-09-29T21:49:14.650Z,5.75
2022-09-29T21:51:43.787Z,6.05
2022-09-29T21:54:18.570Z,4.63
2022-09-29T21:56:46.823Z,5.47
2022-09-29T21:59:16.161Z,6.38
2022-09-29T22:01:44.858Z,6.43
2022-09-29T22:04:11.914Z,6.10
2022-09-29T22:06:39.415Z,6.95
2022-09-29T22:09:08.212Z,5.15
2022-09-29T22:11:42.329Z,5.32
2022-09-29T22:14:10.804Z,4.82
2022-09-29T22:16:37.516Z,5.30
2022-09-29T22:21:55.859Z,4.70
2022-09-29T22:24:24.172Z,4.43
2022-09-29T22:26:51.605Z,4.78
2022-09-29T22:29:18.677Z,6.15
2022-09-29T22:31:46.170Z,4.35
2022-09-29T22:34:12.991Z,3.60
2022-09-29T22:36:39.722Z,4.40
2022-09-29T22:39:07.216Z,4.97
2022-09-29T22:41:36.634Z,4.60
2022-09-29T22:44:04.244Z,3.78
2022-09-29T22:46:32.199Z,5.03
2022-09-29T22:48:59.742Z,4.38
2022-09-29T22:51:26.883Z,4.10
2022-09-29T22:53:53.641Z,5.40
2022-09-29T22:56:28.297Z,4.13
2022-09-29T22:58:59.372Z,5.40
2022-09-29T23:01:27.060Z,6.03
2022-09-29T23:03:54.010Z,4.15
2022-09-29T23:06:20.852Z,5.00
2022-09-29T23:08:47.572Z,6.40
2022-09-29T23:11:17.677Z,4.47
2022-09-29T23:13:45.355Z,6.07
2022-09-29T23:16:13.991Z,5.30
2022-09-29T23:18:45.082Z,6.30
2022-09-29T23:21:20.339Z,5.28
2022-09-29T23:23:48.501Z,5.30
2022-09-29T23:26:16.491Z,5.13
2022-09-29T23:28:43.340Z,4.57
2022-09-29T23:31:10.862Z,4.03
2022-09-29T23:33:38.044Z,4.60
2022-09-29T23:36:09.845Z,4.68
2022-09-29T23:38:59.456Z,3.53
2022-09-29T23:41:27.428Z,4.53
2022-09-29T23:43:55.692Z,4.28
2022-09-29T23:46:26.590Z,3.63
2022-09-29T23:51:20.243Z,3.00
2022-09-29T23:53:47.136Z,3.25
2022-09-29T23:56:13.962Z,3.92
2022-09-29T23:58:40.793Z,2.90
